Time;durP1;ratioP1;P1;durP2;ratioP2;P2;SDS_P1;SDS_P2;PMS_P1;PMS_P2;Temp;Humidity;BMP_temperature;BMP_pressure;BME280_temperature;BME280_humidity;BME280_pressure;Samples;Min_cycle;Max_cycle;Signal;HPM_P1;HPM_P2
2023/12/31 00:01:49;;;;;;;0.30;0.20;;;;;;;8.42;100.00;99631.66;5053396;28;20539;-55
2023/12/31 00:04:15;;;;;;;0.30;0.20;;;;;;;8.23;100.00;99626.03;5055160;28;20474;-55
2023/12/31 00:06:42;;;;;;;0.30;0.20;;;;;;;8.11;100.00;99619.31;5054723;28;20451;-55
2023/12/31 00:09:08;;;;;;;0.30;0.20;;;;;;;7.90;100.00;99607.56;5042366;28;20453;-55
2023/12/31 00:11:35;;;;;;;0.30;0.20;;;;;;;8.16;100.00;99608.56;5055160;28;20881;-55
2023/12/31 00:14:01;;;;;;;0.30;0.20;;;;;;;7.93;100.00;99607.44;5055819;28;20466;-62
2023/12/31 00:16:27;;;;;;;0.30;0.20;;;;;;;7.90;100.00;99598.75;5041968;28;20539;-55
2023/12/31 00:18:54;;;;;;;0.30;0.20;;;;;;;7.89;100.00;99595.22;5055708;28;20866;-55
2023/12/31 00:21:20;;;;;;;0.30;0.20;;;;;;;7.66;100.00;99590.59;5055683;28;20497;-55
2023/12/31 00:23:47;;;;;;;0.30;0.20;;;;;;;7.77;100.00;99597.34;5048774;28;20482;-55
2023/12/31 00:26:13;;;;;;;0.30;0.20;;;;;;;7.50;100.00;99602.50;5048388;28;20487;-55
2023/12/31 00:28:40;;;;;;;0.30;0.20;;;;;;;7.28;100.00;99585.50;5041303;28;20948;-55
2023/12/31 00:31:06;;;;;;;0.30;0.20;;;;;;;7.24;99.95;99587.34;5053582;28;20454;-55
2023/12/31 00:33:33;;;;;;;0.30;0.20;;;;;;;7.87;100.00;99577.69;5049812;28;20528;-54
2023/12/31 00:36:00;;;;;;;0.30;0.20;;;;;;;7.66;100.00;99568.56;5055028;28;20446;-55
2023/12/31 00:38:27;;;;;;;0.30;0.20;;;;;;;7.31;100.00;99566.91;5055847;28;20519;-55
2023/12/31 00:40:54;;;;;;;0.30;0.20;;;;;;;7.37;100.00;99558.81;5042135;28;20948;-55
2023/12/31 00:43:21;;;;;;;0.30;0.20;;;;;;;7.29;100.00;99561.66;5055402;28;20577;-66
2023/12/31 00:45:47;;;;;;;0.30;0.20;;;;;;;7.10;100.00;99557.75;5055361;28;20506;-55
2023/12/31 00:48:14;;;;;;;0.30;0.20;;;;;;;7.05;100.00;99555.25;5055247;28;20541;-55
2023/12/31 00:50:40;;;;;;;0.30;0.20;;;;;;;7.09;100.00;99554.25;5045212;28;20451;-57
2023/12/31 00:53:07;;;;;;;0.30;0.20;;;;;;;6.94;100.00;99537.94;5042502;28;20482;-61
2023/12/31 00:55:38;;;;;;;0.30;0.20;;;;;;;6.80;100.00;99533.88;5050139;28;20474;-54
2023/12/31 00:58:05;;;;;;;0.30;0.20;;;;;;;6.76;100.00;99523.44;5047698;28;20455;-55
2023/12/31 01:00:31;;;;;;;0.30;0.20;;;;;;;6.93;100.00;99525.63;5054777;28;20956;-55
2023/12/31 01:02:58;;;;;;;0.30;0.20;;;;;;;6.71;100.00;99510.34;5053645;28;20592;-59
2023/12/31 01:05:25;;;;;;;0.30;0.20;;;;;;;6.91;100.00;99516.91;5041531;28;20984;-52
2023/12/31 01:07:51;;;;;;;0.30;0.20;;;;;;;6.69;100.00;99522.72;5055434;28;20454;-56
2023/12/31 01:10:18;;;;;;;0.30;0.20;;;;;;;6.75;100.00;99519.94;5041639;28;20459;-52
2023/12/31 01:12:44;;;;;;;0.30;0.20;;;;;;;6.92;100.00;99516.84;5055154;28;20450;-53
2023/12/31 01:15:11;;;;;;;0.30;0.20;;;;;;;6.58;100.00;99526.53;5052367;28;20978;-53
2023/12/31 01:17:37;;;;;;;0.30;0.20;;;;;;;6.49;100.00;99517.06;5044631;28;21007;-52
2023/12/31 01:20:04;;;;;;;0.30;0.20;;;;;;;6.44;100.00;99513.66;5041072;28;20481;-53
2023/12/31 01:22:31;;;;;;;3.80;3.50;;;;;;;6.40;100.00;99517.28;5044958;28;20586;-53
2023/12/31 01:24:57;;;;;;;0.30;0.20;;;;;;;6.41;100.00;99521.66;5052424;28;20979;-52
2023/12/31 01:27:24;;;;;;;0.30;0.20;;;;;;;6.37;100.00;99528.78;5054910;28;21036;-53
2023/12/31 01:29:50;;;;;;;0.30;0.20;;;;;;;6.38;100.00;99516.47;5054842;28;20550;-52
2023/12/31 01:32:17;;;;;;;0.30;0.20;;;;;;;6.26;100.00;99506.19;5054627;28;21011;-56
2023/12/31 01:34:43;;;;;;;0.30;0.20;;;;;;;6.06;100.00;99506.66;5050782;28;20467;-52
2023/12/31 01:37:09;;;;;;;0.30;0.20;;;;;;;5.98;100.00;99505.97;5046180;28;20442;-52
2023/12/31 01:39:36;;;;;;;0.30;0.20;;;;;;;5.86;100.00;99493.88;5049727;28;20456;-52
2023/12/31 01:42:03;;;;;;;0.30;0.20;;;;;;;5.59;100.00;99488.31;5044754;28;20490;-52
2023/12/31 01:44:29;;;;;;;0.30;0.30;;;;;;;5.83;100.00;99479.00;5053800;28;20473;-53
2023/12/31 01:46:56;;;;;;;0.30;0.20;;;;;;;5.79;100.00;99464.16;5043097;28;20484;-52
2023/12/31 01:49:22;;;;;;;0.30;0.20;;;;;;;5.82;100.00;99455.31;5051070;28;20451;-53
2023/12/31 01:51:50;;;;;;;0.30;0.20;;;;;;;5.85;100.00;99452.59;5053707;28;20952;-52
2023/12/31 01:54:18;;;;;;;0.30;0.20;;;;;;;5.63;100.00;99455.72;5039798;28;21061;-52
2023/12/31 01:56:46;;;;;;;0.30;0.20;;;;;;;5.52;100.00;99443.69;5053973;28;20447;-52
2023/12/31 01:59:12;;;;;;;0.30;0.20;;;;;;;5.54;100.00;99432.19;5044686;28;20584;-52
2023/12/31 02:01:40;;;;;;;0.30;0.20;;;;;;;5.76;100.00;99434.38;5060480;28;20575;-58
2023/12/31 02:04:07;;;;;;;0.30;0.20;;;;;;;5.48;100.00;99439.34;5055841;28;20473;-53
2023/12/31 02:06:34;;;;;;;0.30;0.20;;;;;;;5.53;100.00;99440.16;5053814;28;20454;-54
2023/12/31 02:09:00;;;;;;;0.30;0.20;;;;;;;5.61;100.00;99440.81;5052302;28;20974;-52
2023/12/31 02:11:27;;;;;;;0.30;0.20;;;;;;;5.56;100.00;99443.56;5053945;28;20537;-52
2023/12/31 02:13:54;;;;;;;0.30;0.20;;;;;;;5.41;100.00;99427.22;5048083;28;20486;-52
2023/12/31 02:16:21;;;;;;;0.30;0.20;;;;;;;5.57;100.00;99433.91;5045976;28;20998;-52
2023/12/31 02:18:48;;;;;;;0.30;0.20;;;;;;;6.03;100.00;99436.41;5053706;28;20866;-52
2023/12/31 02:21:14;;;;;;;0.30;0.20;;;;;;;6.03;100.00;99435.50;5054449;28;20824;-57
2023/12/31 02:23:41;;;;;;;0.30;0.20;;;;;;;6.41;100.00;99435.41;5054628;28;20504;-52
2023/12/31 02:26:10;;;;;;;0.30;0.20;;;;;;;6.41;100.00;99424.00;5044436;28;20447;-58
2023/12/31 02:28:37;;;;;;;0.30;0.20;;;;;;;6.05;100.00;99415.25;5041168;28;20450;-52
2023/12/31 02:31:05;;;;;;;0.30;0.20;;;;;;;5.99;100.00;99423.28;5044866;28;20453;-52
2023/12/31 02:33:34;;;;;;;0.30;0.20;;;;;;;5.77;100.00;99421.16;5057878;28;20566;-53
2023/12/31 02:36:01;;;;;;;0.30;0.20;;;;;;;5.56;100.00;99411.94;5056909;28;20544;-54
2023/12/31 02:38:28;;;;;;;0.30;0.20;;;;;;;5.58;100.00;99411.91;5044072;28;20482;-53
2023/12/31 02:40:54;;;;;;;0.30;0.20;;;;;;;5.39;100.00;99402.69;5043684;28;20490;-53
2023/12/31 02:43:21;;;;;;;0.30;0.20;;;;;;;5.33;100.00;99398.41;5056951;28;20867;-52
2023/12/31 02:45:47;;;;;;;0.30;0.20;;;;;;;5.29;100.00;99380.94;5056859;28;20541;-52
2023/12/31 02:48:13;;;;;;;0.30;0.20;;;;;;;5.29;100.00;99373.03;5048546;28;20461;-52
2023/12/31 02:50:40;;;;;;;10.80;10.03;;;;;;;5.53;100.00;99388.31;5070239;22;20497;-55
2023/12/31 02:53:06;;;;;;;0.30;0.20;;;;;;;5.63;100.00;99368.75;5020864;28;20515;-55
2023/12/31 02:55:33;;;;;;;0.30;0.20;;;;;;;5.58;100.00;99375.00;5014374;28;20511;-54
2023/12/31 02:57:59;;;;;;;0.30;0.20;;;;;;;5.73;100.00;99364.09;5022746;28;20505;-55
2023/12/31 03:00:26;;;;;;;0.30;0.20;;;;;;;5.69;100.00;99365.09;5015947;28;20539;-55
2023/12/31 03:02:52;;;;;;;0.30;0.17;;;;;;;5.88;100.00;99362.84;5022719;28;21049;-56
2023/12/31 03:05:19;;;;;;;0.30;0.20;;;;;;;6.34;100.00;99352.03;5034492;28;20866;-55
2023/12/31 03:07:46;;;;;;;0.30;0.20;;;;;;;6.49;100.00;99342.84;5026022;28;20479;-55
2023/12/31 03:10:14;;;;;;;0.30;0.20;;;;;;;6.46;100.00;99338.53;5027432;28;20460;-55
2023/12/31 03:12:40;;;;;;;0.30;0.20;;;;;;;6.53;100.00;99339.22;5014377;28;20841;-52
2023/12/31 03:15:08;;;;;;;0.30;0.20;;;;;;;6.57;100.00;99334.69;5027730;28;20546;-53
2023/12/31 03:17:35;;;;;;;0.30;0.20;;;;;;;6.52;100.00;99327.78;5023254;28;21019;-54
2023/12/31 03:20:02;;;;;;;0.30;0.20;;;;;;;6.42;100.00;99325.44;5017913;28;20452;-54
2023/12/31 03:22:28;;;;;;;0.30;0.20;;;;;;;6.54;100.00;99318.03;5015126;28;20500;-54
2023/12/31 03:25:07;;;;;;;0.30;0.20;;;;;;;6.49;100.00;99324.38;5017171;28;20451;-54
2023/12/31 03:27:34;;;;;;;0.30;0.20;;;;;;;6.71;100.00;99317.56;5022626;28;20555;-53
2023/12/31 03:30:00;;;;;;;0.30;0.20;;;;;;;6.94;100.00;99318.69;5027232;28;20452;-54
2023/12/31 03:32:27;;;;;;;0.30;0.20;;;;;;;6.91;100.00;99305.56;5025277;28;20464;-54
2023/12/31 03:34:53;;;;;;;0.30;0.20;;;;;;;6.96;100.00;99298.34;5029305;28;20453;-54
2023/12/31 03:37:20;;;;;;;0.30;0.20;;;;;;;6.81;100.00;99294.41;5017439;28;20469;-54
2023/12/31 03:39:47;;;;;;;0.30;0.20;;;;;;;6.82;100.00;99293.47;5026861;28;20452;-53
2023/12/31 03:42:13;;;;;;;0.30;0.20;;;;;;;6.64;100.00;99276.41;5024241;28;20574;-54
2023/12/31 03:44:39;;;;;;;0.30;0.20;;;;;;;6.74;100.00;99275.25;5020191;28;20452;-54
2023/12/31 03:47:06;;;;;;;0.30;0.20;;;;;;;6.79;100.00;99278.59;5022294;28;20563;-54
2023/12/31 03:49:32;;;;;;;0.30;0.20;;;;;;;6.82;100.00;99269.72;5026929;28;20455;-54
2023/12/31 03:51:59;;;;;;;0.30;0.20;;;;;;;6.82;100.00;99275.00;5024259;28;20483;-54
2023/12/31 03:54:25;;;;;;;0.30;0.20;;;;;;;6.72;100.00;99257.72;5013667;28;20828;-52
2023/12/31 03:56:52;;;;;;;0.30;0.20;;;;;;;6.94;100.00;99271.13;5016094;28;20456;-55
2023/12/31 03:59:18;;;;;;;0.30;0.20;;;;;;;6.87;100.00;99261.69;5026769;28;20546;-55
2023/12/31 04:01:45;;;;;;;0.30;0.20;;;;;;;6.72;100.00;99266.50;5024641;28;20567;-54
2023/12/31 04:04:14;;;;;;;0.30;0.20;;;;;;;6.86;100.00;99265.22;5030615;28;20488;-55
2023/12/31 04:06:44;;;;;;;0.30;0.20;;;;;;;6.74;100.00;99262.03;5028560;28;20459;-55
2023/12/31 04:09:11;;;;;;;0.30;0.20;;;;;;;6.80;100.00;99255.69;5011573;28;20451;-54
2023/12/31 04:11:38;;;;;;;0.30;0.20;;;;;;;6.72;100.00;99257.72;5023185;28;20504;-55
2023/12/31 04:14:04;;;;;;;0.30;0.20;;;;;;;6.62;100.00;99256.25;5029518;28;20479;-55
2023/12/31 04:16:31;;;;;;;0.30;0.20;;;;;;;6.50;100.00;99249.53;5028922;28;20459;-54
2023/12/31 04:18:58;;;;;;;0.30;0.20;;;;;;;6.44;100.00;99242.69;5023344;28;20467;-55
2023/12/31 04:21:24;;;;;;;0.30;0.20;;;;;;;6.50;100.00;99233.72;5022777;28;20989;-54
2023/12/31 04:23:51;;;;;;;0.30;0.20;;;;;;;6.39;100.00;99227.88;5024652;28;20872;-54
2023/12/31 04:26:18;;;;;;;0.30;0.20;;;;;;;6.38;100.00;99220.88;5023640;28;20460;-54
2023/12/31 04:28:45;;;;;;;0.30;0.20;;;;;;;6.46;100.00;99211.81;5026832;28;20546;-54
2023/12/31 04:31:12;;;;;;;0.30;0.20;;;;;;;6.31;100.00;99204.34;5024178;28;20475;-55
2023/12/31 04:33:38;;;;;;;0.30;0.20;;;;;;;6.37;100.00;99200.66;5029307;28;20448;-54
2023/12/31 04:36:05;;;;;;;0.30;0.20;;;;;;;6.25;100.00;99199.25;5023171;28;20460;-55
2023/12/31 04:38:32;;;;;;;0.30;0.20;;;;;;;6.21;100.00;99201.09;5028045;28;20456;-55
2023/12/31 04:40:58;;;;;;;0.30;0.20;;;;;;;6.12;100.00;99195.22;5022580;28;20472;-55
2023/12/31 04:43:25;;;;;;;0.30;0.20;;;;;;;6.26;100.00;99185.13;5031640;28;20480;-54
2023/12/31 04:45:51;;;;;;;0.30;0.20;;;;;;;6.45;100.00;99188.97;5029789;28;20455;-55
2023/12/31 04:48:21;;;;;;;0.30;0.20;;;;;;;6.32;100.00;99179.69;5024028;28;21043;-55
2023/12/31 04:50:47;;;;;;;0.30;0.20;;;;;;;6.21;100.00;99184.41;5022094;28;20683;-55
2023/12/31 04:53:15;;;;;;;0.30;0.20;;;;;;;6.18;100.00;99182.72;5026588;28;20535;-55
2023/12/31 04:55:42;;;;;;;0.30;0.20;;;;;;;6.16;100.00;99175.75;5018457;28;20476;-55
2023/12/31 04:58:08;;;;;;;0.30;0.20;;;;;;;6.01;100.00;99176.19;5032223;28;20459;-55
2023/12/31 05:00:35;;;;;;;0.30;0.20;;;;;;;5.92;100.00;99169.41;5021324;28;20924;-55
2023/12/31 05:03:01;;;;;;;0.30;0.20;;;;;;;5.85;100.00;99168.66;5034525;28;20503;-55
2023/12/31 05:05:28;;;;;;;0.30;0.20;;;;;;;5.77;100.00;99156.63;5021363;28;20514;-55
2023/12/31 05:07:55;;;;;;;0.30;0.20;;;;;;;5.74;100.00;99147.00;5024359;28;20457;-55
2023/12/31 05:10:21;;;;;;;74.33;17.30;;;;;;;5.71;100.00;99138.31;5028154;28;20457;-55
2023/12/31 05:12:48;;;;;;;0.30;0.30;;;;;;;5.78;100.00;99140.75;5025059;28;20499;-55
2023/12/31 05:15:14;;;;;;;0.30;0.20;;;;;;;5.91;100.00;99136.91;5020688;28;20539;-55
2023/12/31 05:17:41;;;;;;;0.30;0.30;;;;;;;6.01;100.00;99129.56;5021561;28;20540;-55
2023/12/31 05:20:08;;;;;;;0.30;0.20;;;;;;;6.22;100.00;99130.72;5025725;28;20458;-55
2023/12/31 05:22:34;;;;;;;0.30;0.20;;;;;;;6.21;100.00;99143.06;5013781;28;21013;-55
2023/12/31 05:25:01;;;;;;;0.30;0.20;;;;;;;6.02;100.00;99130.44;5027085;28;20456;-55
2023/12/31 05:27:27;;;;;;;0.30;0.10;;;;;;;5.96;100.00;99131.50;5018628;28;20452;-54
2023/12/31 05:29:54;;;;;;;0.30;0.20;;;;;;;5.88;100.00;99121.09;5026168;28;20539;-54
2023/12/31 05:32:20;;;;;;;0.47;0.43;;;;;;;5.89;100.00;99120.22;5037888;28;20523;-54
2023/12/31 05:34:47;;;;;;;0.30;0.20;;;;;;;5.77;100.00;99120.56;5027196;28;20540;-54
2023/12/31 05:37:13;;;;;;;0.30;0.20;;;;;;;5.77;100.00;99117.94;5020644;28;20499;-55
2023/12/31 05:39:40;;;;;;;0.30;0.20;;;;;;;5.98;100.00;99115.63;5025962;28;20452;-55
2023/12/31 05:42:07;;;;;;;0.30;0.20;;;;;;;6.04;100.00;99108.41;5014574;28;20579;-55
2023/12/31 05:44:33;;;;;;;0.30;0.20;;;;;;;5.88;100.00;99102.66;5028071;28;20528;-54
2023/12/31 05:46:59;;;;;;;0.30;0.20;;;;;;;6.14;100.00;99112.47;5024450;28;20458;-55
2023/12/31 05:49:26;;;;;;;0.30;0.10;;;;;;;6.15;100.00;99100.16;5031270;28;20873;-54
2023/12/31 05:51:52;;;;;;;0.30;0.20;;;;;;;6.21;100.00;99087.66;5028232;28;20494;-54
2023/12/31 05:54:19;;;;;;;0.30;0.20;;;;;;;6.22;100.00;99081.47;5016374;28;20857;-54
2023/12/31 05:56:45;;;;;;;0.37;0.37;;;;;;;6.12;100.00;99063.31;5014154;28;20484;-54
2023/12/31 05:59:12;;;;;;;0.30;0.20;;;;;;;6.39;100.00;99075.66;5028542;28;20475;-55
2023/12/31 06:01:39;;;;;;;0.30;0.20;;;;;;;6.68;100.00;99087.94;5027156;28;20475;-54
2023/12/31 06:04:06;;;;;;;0.30;0.10;;;;;;;6.69;100.00;99100.22;5032101;28;20496;-54
2023/12/31 06:06:35;;;;;;;0.30;0.20;;;;;;;6.59;100.00;99097.94;5031687;28;20531;-54
2023/12/31 06:09:01;;;;;;;0.30;0.20;;;;;;;6.67;100.00;99093.25;5024673;28;20455;-55
2023/12/31 06:11:28;;;;;;;0.30;0.20;;;;;;;6.65;100.00;99101.25;5032457;28;20551;-54
2023/12/31 06:13:54;;;;;;;0.30;0.20;;;;;;;6.77;100.00;99106.13;5027315;28;20527;-53
2023/12/31 06:16:21;;;;;;;0.30;0.20;;;;;;;6.56;100.00;99098.88;5028555;28;20484;-53
2023/12/31 06:18:47;;;;;;;0.77;0.77;;;;;;;6.70;100.00;99112.50;5031782;28;20973;-50
2023/12/31 06:21:14;;;;;;;0.30;0.20;;;;;;;6.52;100.00;99105.19;5021960;28;20476;-53
2023/12/31 06:23:40;;;;;;;0.30;0.20;;;;;;;6.67;100.00;99099.41;5031045;28;20566;-53
2023/12/31 06:26:07;;;;;;;0.30;0.20;;;;;;;6.62;100.00;99095.19;5031727;28;20471;-53
2023/12/31 06:28:33;;;;;;;0.30;0.20;;;;;;;6.43;100.00;99085.19;5032464;28;20482;-52
2023/12/31 06:31:00;;;;;;;0.30;0.20;;;;;;;6.56;100.00;99090.09;5025448;28;20522;-52
2023/12/31 06:33:27;;;;;;;0.30;0.20;;;;;;;6.66;100.00;99073.91;5027585;28;20447;-52
2023/12/31 06:35:53;;;;;;;0.30;0.20;;;;;;;6.50;100.00;99076.19;5027327;28;20456;-52
2023/12/31 06:38:20;;;;;;;0.30;0.20;;;;;;;6.45;100.00;99074.63;5034964;28;20543;-53
2023/12/31 06:40:46;;;;;;;0.30;0.20;;;;;;;6.67;100.00;99072.13;5035796;28;20511;-52
2023/12/31 06:43:13;;;;;;;0.30;0.20;;;;;;;6.62;100.00;99074.94;5028348;28;20491;-53
2023/12/31 06:45:40;;;;;;;0.30;0.20;;;;;;;6.62;100.00;99060.88;5029638;28;20811;-53
2023/12/31 06:48:06;;;;;;;0.30;0.20;;;;;;;6.54;100.00;99071.66;5035614;28;20539;-53
2023/12/31 06:50:33;;;;;;;0.30;0.20;;;;;;;6.39;100.00;99075.66;5023413;28;20529;-52
2023/12/31 06:53:00;;;;;;;0.30;0.20;;;;;;;6.21;100.00;99065.69;5035006;28;20451;-53
2023/12/31 06:55:27;;;;;;;0.30;0.20;;;;;;;6.22;100.00;99064.78;5023208;28;20877;-53
2023/12/31 06:57:53;;;;;;;0.30;0.20;;;;;;;6.31;100.00;99059.22;5027852;28;20452;-50
2023/12/31 07:00:22;;;;;;;0.40;0.30;;;;;;;6.41;100.00;99054.50;5020906;28;20460;-51
2023/12/31 07:02:48;;;;;;;0.30;0.17;;;;;;;6.30;100.00;99062.75;5025248;28;20506;-51
2023/12/31 07:05:15;;;;;;;0.30;0.20;;;;;;;6.27;100.00;99062.84;5021226;28;20453;-50
2023/12/31 07:07:41;;;;;;;0.30;0.20;;;;;;;6.28;100.00;99055.78;5024698;28;20467;-52
2023/12/31 07:10:08;;;;;;;0.30;0.20;;;;;;;6.48;100.00;99054.25;5027596;28;20948;-51
2023/12/31 07:12:35;;;;;;;0.30;0.20;;;;;;;6.43;100.00;99047.38;5018178;28;20527;-50
2023/12/31 07:15:01;;;;;;;0.30;0.20;;;;;;;6.38;100.00;99052.81;5027136;28;20455;-51
2023/12/31 07:17:28;;;;;;;0.30;0.20;;;;;;;6.38;100.00;99044.91;5021726;28;21018;-50
2023/12/31 07:19:56;;;;;;;0.30;0.20;;;;;;;6.42;100.00;99028.03;5015387;28;20461;-50
2023/12/31 07:22:23;;;;;;;0.30;0.20;;;;;;;6.53;100.00;99038.28;5037174;28;20465;-51
2023/12/31 07:24:49;;;;;;;0.30;0.20;;;;;;;6.52;100.00;99028.63;5020192;28;20492;-50
2023/12/31 07:27:16;;;;;;;0.30;0.20;;;;;;;6.66;100.00;99018.47;5025020;28;20455;-52
2023/12/31 07:29:42;;;;;;;0.30;0.10;;;;;;;6.72;100.00;99022.72;5027339;28;20447;-51
2023/12/31 07:32:09;;;;;;;0.30;0.20;;;;;;;6.89;100.00;99020.34;5023434;28;20559;-50
2023/12/31 07:34:35;;;;;;;0.30;0.20;;;;;;;6.92;100.00;99027.31;5030955;28;20960;-49
2023/12/31 07:37:02;;;;;;;0.30;0.20;;;;;;;6.87;100.00;99022.19;5012239;28;20942;-51
2023/12/31 07:39:28;;;;;;;0.30;0.20;;;;;;;6.82;100.00;99014.41;5028968;28;20536;-50
2023/12/31 07:41:55;;;;;;;0.30;0.20;;;;;;;6.92;100.00;99004.38;5022776;28;20468;-49
2023/12/31 07:44:22;;;;;;;0.30;0.20;;;;;;;6.90;100.00;98997.44;5026648;28;20509;-50
2023/12/31 07:46:49;;;;;;;1.07;1.07;;;;;;;7.10;100.00;99009.03;5018120;28;20854;-50
2023/12/31 07:49:16;;;;;;;0.30;0.20;;;;;;;7.30;100.00;98996.91;5026870;28;20886;-51
2023/12/31 07:51:42;;;;;;;0.30;0.20;;;;;;;7.46;100.00;98994.56;5023143;28;20558;-50
2023/12/31 07:54:09;;;;;;;0.30;0.20;;;;;;;7.47;100.00;98994.50;5016630;28;20457;-50
2023/12/31 07:56:35;;;;;;;0.30;0.20;;;;;;;7.47;100.00;98996.28;5023191;28;20448;-50
2023/12/31 07:59:03;;;;;;;0.30;0.20;;;;;;;7.51;100.00;98987.31;5020157;28;20447;-50
2023/12/31 08:01:29;;;;;;;0.30;0.20;;;;;;;7.56;100.00;98991.53;5022752;28;20515;-49
2023/12/31 08:03:56;;;;;;;0.30;0.20;;;;;;;7.51;100.00;98984.66;5026741;28;20484;-51
2023/12/31 08:06:22;;;;;;;0.30;0.20;;;;;;;7.50;100.00;98980.28;5023763;28;20455;-50
2023/12/31 08:08:49;;;;;;;0.30;0.20;;;;;;;7.60;100.00;98979.03;5019581;28;20455;-50
2023/12/31 08:11:15;;;;;;;0.30;0.20;;;;;;;7.56;100.00;98982.72;5023184;28;20468;-51
2023/12/31 08:13:42;;;;;;;0.30;0.20;;;;;;;7.91;100.00;98976.06;5022133;28;20432;-50
2023/12/31 08:16:08;;;;;;;0.30;0.20;;;;;;;7.77;100.00;98973.97;5023236;28;20539;-50
2023/12/31 08:18:35;;;;;;;0.30;0.20;;;;;;;7.80;100.00;98968.53;5025050;28;20440;-50
2023/12/31 08:21:02;;;;;;;0.30;0.20;;;;;;;7.60;100.00;98964.03;5023182;28;20522;-50
2023/12/31 08:23:29;;;;;;;0.30;0.20;;;;;;;7.59;100.00;98961.44;5023562;28;20479;-50
2023/12/31 08:25:57;;;;;;;0.30;0.20;;;;;;;7.55;100.00;98958.06;5021898;28;20749;-50
2023/12/31 08:28:23;;;;;;;0.30;0.20;;;;;;;7.57;100.00;98960.66;5020789;28;20445;-50
2023/12/31 08:30:51;;;;;;;0.30;0.20;;;;;;;7.85;100.00;98960.44;5020952;28;20852;-50
2023/12/31 08:33:18;;;;;;;0.30;0.20;;;;;;;8.06;100.00;98954.28;5020011;28;20437;-50
2023/12/31 08:35:44;;;;;;;0.30;0.20;;;;;;;8.17;100.00;98953.88;5022850;28;20760;-50
2023/12/31 08:38:11;;;;;;;0.30;0.20;;;;;;;8.37;100.00;98958.41;5022650;28;20499;-51
2023/12/31 08:40:37;;;;;;;0.30;0.20;;;;;;;8.52;99.29;98953.34;5023812;28;20792;-50
2023/12/31 08:43:04;;;;;;;0.30;0.20;;;;;;;8.36;99.55;98957.53;5022661;28;20539;-49
2023/12/31 08:45:32;;;;;;;0.30;0.20;;;;;;;8.31;99.51;98954.19;5022512;28;20670;-50
2023/12/31 08:47:59;;;;;;;0.30;0.20;;;;;;;8.34;99.57;98956.72;5023029;28;20845;-50
2023/12/31 08:50:25;;;;;;;0.30;0.20;;;;;;;8.48;100.00;98954.38;5023148;28;20463;-50
2023/12/31 08:52:52;;;;;;;0.30;0.20;;;;;;;8.58;99.16;98953.06;5032016;23;20591;-56
2023/12/31 08:55:19;;;;;;;0.30;0.20;;;;;;;8.71;98.79;98934.88;5030712;28;20507;-56
2023/12/31 08:57:49;;;;;;;0.30;0.20;;;;;;;8.70;99.25;98942.88;5021560;28;20441;-56
2023/12/31 09:00:17;;;;;;;0.30;0.20;;;;;;;8.82;100.00;98935.28;5021508;28;20494;-56
2023/12/31 09:02:44;;;;;;;0.30;0.20;;;;;;;8.81;100.00;98932.69;5022609;28;20471;-56
2023/12/31 09:05:11;;;;;;;0.30;0.20;;;;;;;9.01;100.00;98930.00;5020175;28;20495;-56
2023/12/31 09:07:39;;;;;;;0.30;0.20;;;;;;;8.99;100.00;98923.94;5021880;28;20456;-56
2023/12/31 09:10:07;;;;;;;0.30;0.20;;;;;;;9.07;100.00;98923.59;5021584;28;20455;-56
2023/12/31 09:12:34;;;;;;;0.30;0.20;;;;;;;9.05;100.00;98931.63;5021611;28;20476;-56
2023/12/31 09:15:00;;;;;;;0.30;0.20;;;;;;;9.06;100.00;98933.34;5020183;28;20532;-56
2023/12/31 09:17:26;;;;;;;0.30;0.20;;;;;;;9.09;100.00;98929.69;5020084;28;20476;-55
2023/12/31 09:19:55;;;;;;;0.30;0.20;;;;;;;8.91;100.00;98920.78;5020971;28;20459;-54
2023/12/31 09:22:21;;;;;;;0.30;0.20;;;;;;;8.89;100.00;98933.19;5022436;28;20480;-56
2023/12/31 09:24:51;;;;;;;0.30;0.20;;;;;;;8.88;100.00;98942.06;5019687;28;20492;-55
2023/12/31 09:27:18;;;;;;;0.30;0.20;;;;;;;9.07;100.00;98948.31;5019661;28;20448;-56
2023/12/31 09:29:46;;;;;;;0.30;0.20;;;;;;;9.14;100.00;98948.88;5018260;28;20459;-56
2023/12/31 09:32:12;;;;;;;0.30;0.20;;;;;;;9.12;100.00;98948.97;5020821;28;20467;-56
2023/12/31 09:34:39;;;;;;;0.30;0.20;;;;;;;9.15;99.78;98932.06;5026331;28;20933;-56
2023/12/31 09:37:05;;;;;;;0.30;0.20;;;;;;;9.08;100.00;98931.47;5021537;28;20454;-56
2023/12/31 09:39:32;;;;;;;0.30;0.20;;;;;;;9.24;100.00;98925.50;5016089;28;20448;-56
2023/12/31 09:42:10;;;;;;;0.30;0.20;;;;;;;9.18;100.00;98914.25;5018217;28;20475;-56
2023/12/31 09:44:37;;;;;;;0.30;0.20;;;;;;;9.32;100.00;98932.19;5025020;28;20488;-56
2023/12/31 09:47:08;;;;;;;0.30;0.20;;;;;;;9.35;100.00;98921.44;5023412;28;20951;-56
2023/12/31 09:49:39;;;;;;;0.30;0.20;;;;;;;9.58;100.00;98923.00;5018390;28;20498;-56
2023/12/31 09:52:07;;;;;;;0.30;0.20;;;;;;;9.59;99.41;98924.72;5024998;28;20519;-55
2023/12/31 09:54:37;;;;;;;0.30;0.20;;;;;;;9.74;98.82;98929.34;5037031;28;20594;-56
2023/12/31 09:57:04;;;;;;;0.30;0.20;;;;;;;9.95;98.63;98915.97;5031299;28;20444;-56
2023/12/31 09:59:31;;;;;;;0.30;0.20;;;;;;;10.20;98.45;98926.25;5020328;28;20439;-56
2023/12/31 10:02:04;;;;;;;0.30;0.20;;;;;;;10.10;97.68;98915.22;5023857;28;20502;-56
2023/12/31 10:04:31;;;;;;;0.30;0.20;;;;;;;10.02;98.07;98907.63;5022161;28;20480;-56
2023/12/31 10:06:58;;;;;;;0.30;0.20;;;;;;;10.13;97.88;98900.91;5020248;28;20448;-56
2023/12/31 10:09:33;;;;;;;0.30;0.20;;;;;;;10.15;98.07;98904.38;5027102;28;20451;-56
2023/12/31 10:12:03;;;;;;;0.30;0.20;;;;;;;10.17;99.13;98897.19;5024683;28;20538;-56
2023/12/31 10:14:29;;;;;;;0.30;0.20;;;;;;;10.10;99.29;98896.63;5022020;28;20457;-56
2023/12/31 10:16:55;;;;;;;0.30;0.20;;;;;;;10.08;99.02;98885.22;5019994;28;20458;-56
2023/12/31 10:19:23;;;;;;;0.30;0.20;;;;;;;10.24;98.95;98888.88;5017185;28;20448;-56
2023/12/31 10:21:50;;;;;;;0.30;0.20;;;;;;;10.21;99.38;98886.38;5024576;28;20480;-56
2023/12/31 10:24:29;;;;;;;0.30;0.20;;;;;;;10.29;99.56;98880.69;5017301;28;20999;-56
2023/12/31 10:27:05;;;;;;;0.30;0.20;;;;;;;10.09;100.00;98874.53;5017804;28;21062;-56
2023/12/31 10:29:32;;;;;;;0.30;0.20;;;;;;;10.32;100.00;98869.91;5014861;28;20444;-56
2023/12/31 10:31:59;;;;;;;0.50;0.50;;;;;;;10.21;100.00;98875.75;5022380;28;20993;-56
2023/12/31 10:34:25;;;;;;;0.30;0.20;;;;;;;10.34;100.00;98898.09;5022810;28;20510;-56
2023/12/31 10:37:05;;;;;;;0.30;0.20;;;;;;;9.91;100.00;98933.84;5018878;28;21055;-56
2023/12/31 10:39:36;;;;;;;0.30;0.20;;;;;;;9.21;100.00;98966.25;5017670;28;20828;-56
2023/12/31 10:42:05;;;;;;;0.30;0.20;;;;;;;9.16;100.00;98947.03;5018925;28;20547;-56
2023/12/31 10:44:36;;;;;;;0.30;0.20;;;;;;;9.19;100.00;98929.22;5021208;28;20488;-56
2023/12/31 10:47:05;;;;;;;0.30;0.20;;;;;;;9.49;100.00;98944.66;5022328;28;20459;-56
2023/12/31 10:49:32;;;;;;;0.30;0.20;;;;;;;9.38;100.00;98949.59;5017421;28;20541;-56
2023/12/31 10:52:02;;;;;;;0.30;0.20;;;;;;;9.33;100.00;98951.59;5024838;28;20554;-56
2023/12/31 10:54:35;;;;;;;0.30;0.20;;;;;;;9.45;100.00;98924.50;5039879;28;20474;-56
2023/12/31 10:57:03;;;;;;;0.30;0.20;;;;;;;9.67;100.00;98935.84;5027471;28;20448;-56
2023/12/31 10:59:31;;;;;;;0.30;0.20;;;;;;;9.72;100.00;98938.28;5027022;28;20885;-55
2023/12/31 11:01:58;;;;;;;0.30;0.20;;;;;;;9.78;100.00;98928.25;5026965;28;20463;-56
2023/12/31 11:04:26;;;;;;;0.30;0.20;;;;;;;9.97;100.00;98927.34;5021798;28;20498;-56
2023/12/31 11:06:55;;;;;;;0.30;0.20;;;;;;;10.06;100.00;98929.56;5021005;28;20452;-59
2023/12/31 11:09:21;;;;;;;0.30;0.20;;;;;;;9.91;100.00;98919.69;5026848;28;20937;-56
2023/12/31 11:11:49;;;;;;;0.30;0.20;;;;;;;10.22;100.00;98925.28;5021392;28;20579;-56
2023/12/31 11:14:24;;;;;;;0.30;0.20;;;;;;;10.24;100.00;98934.00;5039555;28;20519;-56
2023/12/31 11:17:07;;;;;;;0.30;0.20;;;;;;;10.46;100.00;98927.66;5029714;28;20940;-56
2023/12/31 11:19:53;;;;;;;0.30;0.20;;;;;;;10.34;99.89;98931.78;5019579;28;20447;-56
2023/12/31 11:22:36;;;;;;;0.30;0.20;;;;;;;10.27;99.84;98917.91;5018340;28;20552;-55
2023/12/31 11:25:06;;;;;;;0.30;0.20;;;;;;;10.47;99.70;98918.75;5027775;28;21031;-54
2023/12/31 11:27:33;;;;;;;0.30;0.20;;;;;;;10.22;99.41;98906.69;5024416;28;20517;-55
2023/12/31 11:30:01;;;;;;;0.30;0.20;;;;;;;10.31;98.69;98908.88;5020135;28;20502;-54
2023/12/31 11:32:28;;;;;;;0.30;0.20;;;;;;;10.42;98.26;98911.03;5024836;28;20541;-54
2023/12/31 11:34:54;;;;;;;0.30;0.20;;;;;;;10.30;99.29;98908.97;5019317;28;20447;-55